West Palm Beach, FL

4:29 AM EDT on August 25, 2016 (GMT -0400)
Loxahatchee Groves | | Change Station

Elev 49 ft 26.71 °N, 80.28 °W | Updated 7 seconds ago

Thunderstorm
Thunderstorm
79.3 °F
Feels Like 84 °F
N
0.0
Wind Variable Wind from NNW
Gusts 0.0 mph

Today
High -- | Low -- °F
--% Chance of Precip.
Yesterday
High -- | Low -- °F
Precip. -- in
Pressure 29.97 in
Visibility 10.0 miles
Clouds Scattered Clouds 2000 ft
Scattered Clouds 7000 ft
Mostly Cloudy 25000 ft
Heat Index 84 °F
Dew Point 78 °F
Humidity 96%
Rainfall 0.00 in
Snow Depth Not available.
6:57 AM 7:47 PM
Waning Gibbous, 48% visible
SPECI KPBI 250819Z 05008KT 10SM TS SCT020CB SCT070 BKN250 29/24 A2997 RMK AO2 TSB19 FRQ LTGICCCCG NE TS NE MOV SW CB DSNT SE T02890244
Pressure 29.97 in
Visibility 10.0 miles
Clouds Scattered Clouds 2000 ft
Scattered Clouds 7000 ft
Mostly Cloudy 25000 ft
Heat Index 84 °F
Dew Point 78 °F
Humidity 96%
Rainfall 0.00 in
Snow Depth Not available.
6:57 AM 7:47 PM
Waning Gibbous, 48% visible
SPECI KPBI 250819Z 05008KT 10SM TS SCT020CB SCT070 BKN250 29/24 A2997 RMK AO2 TSB19 FRQ LTGICCCCG NE TS NE MOV SW CB DSNT SE T02890244

10-Day Weather Forecast

Almanac

Astronomy

Aug. 25, 2016 Rise Set
Actual Time
Civil Twilight
Nautical Twilight
Astronomical Twilight
Moon
Length of Visible Light
Length of Day
Tomorrow will be .
, % of the Moon is Illuminated

Today's Extremes

State Highs State Lows

Community

WunderPhotos

Upload Photos

1,934,814 photos uploaded!

WunderBlog® & News

Nearby

Air Quality

  Air Quality AQ Index Pollutant
Not available.

Snow Depth

Station Depth Elevation

Earthquake Activity

City Distance Mag. Time & Date
Minimum magnitude displayed is 2.5.

Coastal Water Temperatures

Place Temperature

Stations

Nearby Weather Stations

Station Location Temp. Windchill Dew Point Humidity Wind Precip. Elev Updated Type
                   

Watches & Warnings

There are currently no watches in effect.